sensor_id;sensor_type;location;lat;lon;timestamp;P1;durP1;ratioP1;P2;durP2;ratioP2
4676;SDS011;2352;48.180;11.478;2023-05-17T00:02:57;2.27;;;2.07;;
4676;SDS011;2352;48.180;11.478;2023-05-17T00:06:00;2.40;;;2.10;;
4676;SDS011;2352;48.180;11.478;2023-05-17T00:09:03;2.17;;;2.00;;
4676;SDS011;2352;48.180;11.478;2023-05-17T00:12:08;2.67;;;1.70;;
4676;SDS011;2352;48.180;11.478;2023-05-17T00:15:11;2.43;;;1.57;;
4676;SDS011;2352;48.180;11.478;2023-05-17T00:18:14;2.37;;;1.77;;
4676;SDS011;2352;48.180;11.478;2023-05-17T00:21:18;4.13;;;2.40;;
4676;SDS011;2352;48.180;11.478;2023-05-17T00:24:20;2.57;;;1.97;;
4676;SDS011;2352;48.180;11.478;2023-05-17T00:27:25;3.77;;;1.57;;
4676;SDS011;2352;48.180;11.478;2023-05-17T00:30:27;2.33;;;2.10;;
4676;SDS011;2352;48.180;11.478;2023-05-17T00:33:30;4.43;;;2.40;;
4676;SDS011;2352;48.180;11.478;2023-05-17T00:36:33;4.27;;;2.10;;
4676;SDS011;2352;48.180;11.478;2023-05-17T00:39:36;4.20;;;2.00;;
4676;SDS011;2352;48.180;11.478;2023-05-17T00:42:40;7.33;;;2.23;;
4676;SDS011;2352;48.180;11.478;2023-05-17T00:45:44;2.97;;;1.67;;
4676;SDS011;2352;48.180;11.478;2023-05-17T00:48:48;6.17;;;2.57;;
4676;SDS011;2352;48.180;11.478;2023-05-17T00:51:52;4.93;;;1.87;;
4676;SDS011;2352;48.180;11.478;2023-05-17T00:54:55;4.40;;;2.30;;
4676;SDS011;2352;48.180;11.478;2023-05-17T00:57:59;4.70;;;1.83;;
4676;SDS011;2352;48.180;11.478;2023-05-17T01:01:02;2.80;;;1.90;;
4676;SDS011;2352;48.180;11.478;2023-05-17T01:04:05;3.77;;;2.20;;
4676;SDS011;2352;48.180;11.478;2023-05-17T01:07:09;7.87;;;2.17;;
4676;SDS011;2352;48.180;11.478;2023-05-17T01:10:12;7.07;;;2.10;;
4676;SDS011;2352;48.180;11.478;2023-05-17T01:13:17;4.50;;;2.37;;
4676;SDS011;2352;48.180;11.478;2023-05-17T01:16:29;2.60;;;1.90;;
4676;SDS011;2352;48.180;11.478;2023-05-17T01:19:39;3.07;;;2.10;;
4676;SDS011;2352;48.180;11.478;2023-05-17T01:22:52;4.03;;;2.33;;
4676;SDS011;2352;48.180;11.478;2023-05-17T01:26:09;4.40;;;1.63;;
4676;SDS011;2352;48.180;11.478;2023-05-17T01:29:19;2.40;;;1.70;;
4676;SDS011;2352;48.180;11.478;2023-05-17T01:32:25;2.37;;;2.17;;
4676;SDS011;2352;48.180;11.478;2023-05-17T01:35:30;3.10;;;2.67;;
4676;SDS011;2352;48.180;11.478;2023-05-17T01:38:33;2.40;;;2.20;;
4676;SDS011;2352;48.180;11.478;2023-05-17T01:41:36;6.10;;;2.70;;
4676;SDS011;2352;48.180;11.478;2023-05-17T01:44:44;4.07;;;2.33;;
4676;SDS011;2352;48.180;11.478;2023-05-17T01:47:54;3.73;;;2.73;;
4676;SDS011;2352;48.180;11.478;2023-05-17T01:51:06;4.30;;;2.53;;
4676;SDS011;2352;48.180;11.478;2023-05-17T01:54:13;5.40;;;2.67;;
4676;SDS011;2352;48.180;11.478;2023-05-17T01:57:24;10.17;;;2.60;;
4676;SDS011;2352;48.180;11.478;2023-05-17T02:00:32;5.47;;;2.73;;
4676;SDS011;2352;48.180;11.478;2023-05-17T02:03:35;4.50;;;2.77;;
4676;SDS011;2352;48.180;11.478;2023-05-17T02:06:38;3.27;;;2.47;;
4676;SDS011;2352;48.180;11.478;2023-05-17T02:09:41;3.30;;;2.43;;
4676;SDS011;2352;48.180;11.478;2023-05-17T02:12:44;7.63;;;2.43;;
4676;SDS011;2352;48.180;11.478;2023-05-17T02:15:48;6.17;;;3.27;;
4676;SDS011;2352;48.180;11.478;2023-05-17T02:18:51;6.27;;;2.73;;
4676;SDS011;2352;48.180;11.478;2023-05-17T02:21:54;5.03;;;3.13;;
4676;SDS011;2352;48.180;11.478;2023-05-17T02:24:56;4.83;;;2.63;;
4676;SDS011;2352;48.180;11.478;2023-05-17T02:27:59;3.13;;;2.77;;
4676;SDS011;2352;48.180;11.478;2023-05-17T02:31:04;5.27;;;3.43;;
4676;SDS011;2352;48.180;11.478;2023-05-17T02:34:09;3.17;;;2.23;;
4676;SDS011;2352;48.180;11.478;2023-05-17T02:37:12;3.77;;;2.80;;
4676;SDS011;2352;48.180;11.478;2023-05-17T02:40:14;3.13;;;2.60;;
4676;SDS011;2352;48.180;11.478;2023-05-17T02:43:17;2.60;;;1.67;;
4676;SDS011;2352;48.180;11.478;2023-05-17T02:46:22;5.87;;;2.87;;
4676;SDS011;2352;48.180;11.478;2023-05-17T02:49:24;3.87;;;2.17;;
4676;SDS011;2352;48.180;11.478;2023-05-17T02:52:27;2.07;;;1.93;;
4676;SDS011;2352;48.180;11.478;2023-05-17T02:55:30;2.13;;;2.00;;
4676;SDS011;2352;48.180;11.478;2023-05-17T02:58:33;3.27;;;1.93;;
4676;SDS011;2352;48.180;11.478;2023-05-17T03:01:37;5.40;;;2.60;;
4676;SDS011;2352;48.180;11.478;2023-05-17T03:04:40;2.80;;;2.10;;
4676;SDS011;2352;48.180;11.478;2023-05-17T03:07:43;3.10;;;2.30;;
4676;SDS011;2352;48.180;11.478;2023-05-17T03:10:46;5.00;;;2.10;;
4676;SDS011;2352;48.180;11.478;2023-05-17T03:13:49;2.90;;;1.77;;
4676;SDS011;2352;48.180;11.478;2023-05-17T03:16:53;6.67;;;2.37;;
4676;SDS011;2352;48.180;11.478;2023-05-17T03:19:56;2.07;;;1.67;;
4676;SDS011;2352;48.180;11.478;2023-05-17T03:22:59;2.17;;;1.70;;
4676;SDS011;2352;48.180;11.478;2023-05-17T03:26:02;1.90;;;1.50;;
4676;SDS011;2352;48.180;11.478;2023-05-17T03:29:05;2.30;;;1.50;;
4676;SDS011;2352;48.180;11.478;2023-05-17T03:32:09;2.43;;;2.13;;
4676;SDS011;2352;48.180;11.478;2023-05-17T03:35:12;3.73;;;1.83;;
4676;SDS011;2352;48.180;11.478;2023-05-17T03:38:14;2.20;;;1.90;;
4676;SDS011;2352;48.180;11.478;2023-05-17T03:41:17;3.10;;;1.80;;
4676;SDS011;2352;48.180;11.478;2023-05-17T03:44:21;2.87;;;1.87;;
4676;SDS011;2352;48.180;11.478;2023-05-17T03:47:26;3.83;;;1.40;;
4676;SDS011;2352;48.180;11.478;2023-05-17T03:50:29;2.27;;;1.83;;
4676;SDS011;2352;48.180;11.478;2023-05-17T03:53:32;3.83;;;2.20;;
4676;SDS011;2352;48.180;11.478;2023-05-17T03:56:41;2.60;;;2.03;;
4676;SDS011;2352;48.180;11.478;2023-05-17T03:59:47;3.37;;;1.30;;
4676;SDS011;2352;48.180;11.478;2023-05-17T04:02:51;3.93;;;1.73;;
4676;SDS011;2352;48.180;11.478;2023-05-17T04:05:59;1.43;;;1.30;;
4676;SDS011;2352;48.180;11.478;2023-05-17T04:09:07;3.13;;;1.93;;
4676;SDS011;2352;48.180;11.478;2023-05-17T04:12:11;4.13;;;2.27;;
4676;SDS011;2352;48.180;11.478;2023-05-17T04:15:13;1.93;;;1.67;;
4676;SDS011;2352;48.180;11.478;2023-05-17T04:18:18;3.80;;;2.17;;
4676;SDS011;2352;48.180;11.478;2023-05-17T04:21:21;2.13;;;1.93;;
4676;SDS011;2352;48.180;11.478;2023-05-17T04:24:24;2.13;;;1.40;;
4676;SDS011;2352;48.180;11.478;2023-05-17T04:27:26;4.93;;;1.80;;
4676;SDS011;2352;48.180;11.478;2023-05-17T04:30:29;9.60;;;1.77;;
4676;SDS011;2352;48.180;11.478;2023-05-17T04:33:34;3.00;;;1.27;;
4676;SDS011;2352;48.180;11.478;2023-05-17T04:36:37;1.83;;;1.63;;
4676;SDS011;2352;48.180;11.478;2023-05-17T04:39:40;4.07;;;1.83;;
4676;SDS011;2352;48.180;11.478;2023-05-17T04:42:43;5.40;;;1.63;;
4676;SDS011;2352;48.180;11.478;2023-05-17T04:45:45;2.47;;;1.80;;
4676;SDS011;2352;48.180;11.478;2023-05-17T04:48:50;1.60;;;1.50;;
4676;SDS011;2352;48.180;11.478;2023-05-17T04:51:54;2.77;;;1.53;;
4676;SDS011;2352;48.180;11.478;2023-05-17T04:54:56;2.43;;;1.63;;
4676;SDS011;2352;48.180;11.478;2023-05-17T04:57:59;2.03;;;1.33;;
4676;SDS011;2352;48.180;11.478;2023-05-17T05:01:02;2.67;;;1.63;;
4676;SDS011;2352;48.180;11.478;2023-05-17T05:04:08;2.40;;;1.30;;
4676;SDS011;2352;48.180;11.478;2023-05-17T05:07:11;2.43;;;2.23;;
4676;SDS011;2352;48.180;11.478;2023-05-17T05:10:14;2.40;;;1.63;;
4676;SDS011;2352;48.180;11.478;2023-05-17T05:13:17;2.47;;;1.43;;
4676;SDS011;2352;48.180;11.478;2023-05-17T05:16:20;2.80;;;1.30;;
4676;SDS011;2352;48.180;11.478;2023-05-17T05:19:24;2.33;;;1.60;;
4676;SDS011;2352;48.180;11.478;2023-05-17T05:22:27;4.20;;;1.60;;
4676;SDS011;2352;48.180;11.478;2023-05-17T05:25:29;2.43;;;1.53;;
4676;SDS011;2352;48.180;11.478;2023-05-17T05:28:32;3.50;;;1.83;;
4676;SDS011;2352;48.180;11.478;2023-05-17T05:31:35;3.53;;;1.60;;
4676;SDS011;2352;48.180;11.478;2023-05-17T05:34:39;3.03;;;1.50;;
4676;SDS011;2352;48.180;11.478;2023-05-17T05:37:42;1.70;;;1.03;;
4676;SDS011;2352;48.180;11.478;2023-05-17T05:40:46;2.97;;;1.43;;
4676;SDS011;2352;48.180;11.478;2023-05-17T05:43:49;1.20;;;1.10;;
4676;SDS011;2352;48.180;11.478;2023-05-17T05:46:52;1.83;;;1.10;;
4676;SDS011;2352;48.180;11.478;2023-05-17T05:49:56;5.47;;;1.37;;
4676;SDS011;2352;48.180;11.478;2023-05-17T05:52:59;3.70;;;1.30;;
4676;SDS011;2352;48.180;11.478;2023-05-17T05:56:14;2.10;;;1.53;;
4676;SDS011;2352;48.180;11.478;2023-05-17T05:59:18;3.83;;;2.10;;
4676;SDS011;2352;48.180;11.478;2023-05-17T06:02:21;2.07;;;1.60;;
4676;SDS011;2352;48.180;11.478;2023-05-17T06:05:26;2.50;;;1.57;;
4676;SDS011;2352;48.180;11.478;2023-05-17T06:08:29;3.17;;;1.33;;
4676;SDS011;2352;48.180;11.478;2023-05-17T06:11:31;2.30;;;1.37;;
4676;SDS011;2352;48.180;11.478;2023-05-17T06:14:34;2.40;;;0.90;;
4676;SDS011;2352;48.180;11.478;2023-05-17T06:17:38;3.10;;;1.33;;
4676;SDS011;2352;48.180;11.478;2023-05-17T06:20:43;1.23;;;1.10;;
4676;SDS011;2352;48.180;11.478;2023-05-17T06:23:46;1.90;;;1.20;;
4676;SDS011;2352;48.180;11.478;2023-05-17T06:26:49;3.27;;;1.10;;
4676;SDS011;2352;48.180;11.478;2023-05-17T06:29:52;2.50;;;1.10;;
4676;SDS011;2352;48.180;11.478;2023-05-17T06:32:55;1.43;;;1.17;;
4676;SDS011;2352;48.180;11.478;2023-05-17T06:36:00;4.30;;;1.47;;
4676;SDS011;2352;48.180;11.478;2023-05-17T06:39:08;2.00;;;1.20;;
4676;SDS011;2352;48.180;11.478;2023-05-17T06:42:11;3.53;;;1.63;;
4676;SDS011;2352;48.180;11.478;2023-05-17T06:45:14;2.47;;;1.53;;
4676;SDS011;2352;48.180;11.478;2023-05-17T06:48:16;5.67;;;2.17;;
4676;SDS011;2352;48.180;11.478;2023-05-17T06:51:21;3.07;;;1.53;;
4676;SDS011;2352;48.180;11.478;2023-05-17T06:54:24;3.33;;;1.73;;
4676;SDS011;2352;48.180;11.478;2023-05-17T06:57:27;2.77;;;1.20;;
4676;SDS011;2352;48.180;11.478;2023-05-17T07:00:30;5.53;;;1.10;;
4676;SDS011;2352;48.180;11.478;2023-05-17T07:03:33;3.03;;;1.20;;
4676;SDS011;2352;48.180;11.478;2023-05-17T07:06:38;3.17;;;1.10;;
4676;SDS011;2352;48.180;11.478;2023-05-17T07:09:41;3.93;;;1.53;;
4676;SDS011;2352;48.180;11.478;2023-05-17T07:12:44;2.20;;;1.53;;
4676;SDS011;2352;48.180;11.478;2023-05-17T07:15:47;5.13;;;1.27;;
4676;SDS011;2352;48.180;11.478;2023-05-17T07:18:50;1.30;;;1.20;;
4676;SDS011;2352;48.180;11.478;2023-05-17T07:21:54;2.47;;;1.03;;
4676;SDS011;2352;48.180;11.478;2023-05-17T07:24:57;3.00;;;1.67;;
4676;SDS011;2352;48.180;11.478;2023-05-17T07:28:00;2.30;;;0.83;;
4676;SDS011;2352;48.180;11.478;2023-05-17T07:31:03;1.83;;;1.40;;
4676;SDS011;2352;48.180;11.478;2023-05-17T07:34:06;1.77;;;1.30;;
4676;SDS011;2352;48.180;11.478;2023-05-17T07:37:10;1.87;;;1.37;;
4676;SDS011;2352;48.180;11.478;2023-05-17T07:40:13;4.50;;;1.43;;
4676;SDS011;2352;48.180;11.478;2023-05-17T07:43:16;2.40;;;1.40;;
4676;SDS011;2352;48.180;11.478;2023-05-17T07:46:19;2.97;;;1.20;;
4676;SDS011;2352;48.180;11.478;2023-05-17T07:49:23;1.03;;;0.87;;
4676;SDS011;2352;48.180;11.478;2023-05-17T07:52:27;2.97;;;1.33;;
4676;SDS011;2352;48.180;11.478;2023-05-17T07:55:38;7.90;;;1.30;;
4676;SDS011;2352;48.180;11.478;2023-05-17T07:58:42;2.37;;;1.10;;
4676;SDS011;2352;48.180;11.478;2023-05-17T08:01:45;3.17;;;1.27;;
4676;SDS011;2352;48.180;11.478;2023-05-17T08:04:49;4.73;;;1.70;;
4676;SDS011;2352;48.180;11.478;2023-05-17T08:07:54;2.27;;;1.30;;
4676;SDS011;2352;48.180;11.478;2023-05-17T08:11:00;1.90;;;0.97;;
4676;SDS011;2352;48.180;11.478;2023-05-17T08:14:03;3.87;;;1.30;;
4676;SDS011;2352;48.180;11.478;2023-05-17T08:17:06;2.23;;;1.30;;
4676;SDS011;2352;48.180;11.478;2023-05-17T08:20:10;3.43;;;1.60;;
4676;SDS011;2352;48.180;11.478;2023-05-17T08:23:14;2.47;;;1.23;;
4676;SDS011;2352;48.180;11.478;2023-05-17T08:26:18;2.13;;;1.33;;
4676;SDS011;2352;48.180;11.478;2023-05-17T08:29:21;6.40;;;1.60;;
4676;SDS011;2352;48.180;11.478;2023-05-17T08:32:24;2.23;;;0.90;;
4676;SDS011;2352;48.180;11.478;2023-05-17T08:35:28;2.10;;;1.23;;
4676;SDS011;2352;48.180;11.478;2023-05-17T08:38:34;1.50;;;1.03;;
4676;SDS011;2352;48.180;11.478;2023-05-17T08:41:37;1.73;;;0.97;;
4676;SDS011;2352;48.180;11.478;2023-05-17T08:44:41;1.87;;;0.97;;
4676;SDS011;2352;48.180;11.478;2023-05-17T08:47:44;6.50;;;1.53;;
4676;SDS011;2352;48.180;11.478;2023-05-17T08:50:49;3.23;;;1.47;;
4676;SDS011;2352;48.180;11.478;2023-05-17T08:53:54;1.70;;;1.03;;
4676;SDS011;2352;48.180;11.478;2023-05-17T08:56:59;3.37;;;1.07;;
4676;SDS011;2352;48.180;11.478;2023-05-17T09:00:03;3.27;;;1.00;;
4676;SDS011;2352;48.180;11.478;2023-05-17T09:03:13;8.00;;;1.17;;
4676;SDS011;2352;48.180;11.478;2023-05-17T09:06:19;3.43;;;1.10;;
4676;SDS011;2352;48.180;11.478;2023-05-17T09:09:24;5.20;;;1.40;;
4676;SDS011;2352;48.180;11.478;2023-05-17T09:12:27;3.27;;;1.10;;
4676;SDS011;2352;48.180;11.478;2023-05-17T09:15:34;2.57;;;0.87;;
4676;SDS011;2352;48.180;11.478;2023-05-17T09:18:38;4.93;;;1.40;;
4676;SDS011;2352;48.180;11.478;2023-05-17T09:21:44;2.60;;;0.80;;
4676;SDS011;2352;48.180;11.478;2023-05-17T09:24:49;4.73;;;2.03;;
4676;SDS011;2352;48.180;11.478;2023-05-17T09:27:52;1.70;;;1.17;;
4676;SDS011;2352;48.180;11.478;2023-05-17T09:30:55;2.57;;;0.83;;
4676;SDS011;2352;48.180;11.478;2023-05-17T09:33:58;2.53;;;0.90;;
4676;SDS011;2352;48.180;11.478;2023-05-17T09:37:02;2.50;;;0.80;;
4676;SDS011;2352;48.180;11.478;2023-05-17T09:40:08;5.60;;;1.00;;
4676;SDS011;2352;48.180;11.478;2023-05-17T09:43:12;3.43;;;1.10;;
4676;SDS011;2352;48.180;11.478;2023-05-17T09:46:16;2.80;;;1.00;;
4676;SDS011;2352;48.180;11.478;2023-05-17T09:49:24;5.47;;;1.43;;
4676;SDS011;2352;48.180;11.478;2023-05-17T09:52:30;2.00;;;0.80;;
4676;SDS011;2352;48.180;11.478;2023-05-17T09:55:36;1.50;;;0.97;;
4676;SDS011;2352;48.180;11.478;2023-05-17T09:58:39;2.10;;;1.07;;
4676;SDS011;2352;48.180;11.478;2023-05-17T10:01:44;1.70;;;0.77;;
4676;SDS011;2352;48.180;11.478;2023-05-17T10:04:48;1.20;;;0.80;;
4676;SDS011;2352;48.180;11.478;2023-05-17T10:07:52;4.90;;;1.00;;
4676;SDS011;2352;48.180;11.478;2023-05-17T10:10:58;2.07;;;0.93;;
4676;SDS011;2352;48.180;11.478;2023-05-17T10:14:04;1.03;;;0.93;;
4676;SDS011;2352;48.180;11.478;2023-05-17T10:17:10;1.57;;;0.60;;
4676;SDS011;2352;48.180;11.478;2023-05-17T10:20:14;2.93;;;0.90;;
4676;SDS011;2352;48.180;11.478;2023-05-17T10:23:18;1.47;;;1.10;;
4676;SDS011;2352;48.180;11.478;2023-05-17T10:26:24;5.10;;;1.10;;
4676;SDS011;2352;48.180;11.478;2023-05-17T10:29:27;2.60;;;1.00;;
4676;SDS011;2352;48.180;11.478;2023-05-17T10:32:31;2.90;;;0.70;;
4676;SDS011;2352;48.180;11.478;2023-05-17T10:35:35;1.07;;;0.70;;
4676;SDS011;2352;48.180;11.478;2023-05-17T10:38:41;3.53;;;1.20;;
4676;SDS011;2352;48.180;11.478;2023-05-17T10:41:46;2.50;;;0.93;;
4676;SDS011;2352;48.180;11.478;2023-05-17T10:44:52;1.47;;;1.10;;
4676;SDS011;2352;48.180;11.478;2023-05-17T10:47:55;1.87;;;0.73;;
4676;SDS011;2352;48.180;11.478;2023-05-17T10:51:04;2.43;;;1.10;;
4676;SDS011;2352;48.180;11.478;2023-05-17T10:54:10;2.80;;;0.90;;
4676;SDS011;2352;48.180;11.478;2023-05-17T10:57:19;2.53;;;1.23;;
4676;SDS011;2352;48.180;11.478;2023-05-17T11:00:23;1.30;;;1.00;;
4676;SDS011;2352;48.180;11.478;2023-05-17T11:03:30;1.87;;;1.00;;
4676;SDS011;2352;48.180;11.478;2023-05-17T11:06:36;2.90;;;1.30;;
4676;SDS011;2352;48.180;11.478;2023-05-17T11:09:42;4.43;;;1.50;;
4676;SDS011;2352;48.180;11.478;2023-05-17T11:12:47;1.50;;;1.27;;
4676;SDS011;2352;48.180;11.478;2023-05-17T11:16:02;3.60;;;1.57;;
4676;SDS011;2352;48.180;11.478;2023-05-17T11:19:06;5.43;;;0.90;;
4676;SDS011;2352;48.180;11.478;2023-05-17T11:22:10;1.70;;;1.03;;
4676;SDS011;2352;48.180;11.478;2023-05-17T11:25:14;2.77;;;1.50;;
4676;SDS011;2352;48.180;11.478;2023-05-17T11:28:19;1.40;;;1.00;;
4676;SDS011;2352;48.180;11.478;2023-05-17T11:31:27;3.97;;;1.30;;
4676;SDS011;2352;48.180;11.478;2023-05-17T11:34:32;2.30;;;1.50;;
4676;SDS011;2352;48.180;11.478;2023-05-17T11:37:35;2.70;;;1.33;;
4676;SDS011;2352;48.180;11.478;2023-05-17T11:40:38;3.20;;;1.30;;
4676;SDS011;2352;48.180;11.478;2023-05-17T11:43:45;3.30;;;1.40;;
4676;SDS011;2352;48.180;11.478;2023-05-17T11:46:49;1.30;;;1.20;;
4676;SDS011;2352;48.180;11.478;2023-05-17T11:49:52;1.57;;;1.30;;
4676;SDS011;2352;48.180;11.478;2023-05-17T11:52:56;3.63;;;1.50;;
4676;SDS011;2352;48.180;11.478;2023-05-17T11:56:01;1.30;;;1.20;;
4676;SDS011;2352;48.180;11.478;2023-05-17T11:59:06;3.27;;;1.17;;
4676;SDS011;2352;48.180;11.478;2023-05-17T12:02:10;1.10;;;1.00;;
4676;SDS011;2352;48.180;11.478;2023-05-17T12:05:27;1.80;;;1.47;;
4676;SDS011;2352;48.180;11.478;2023-05-17T12:08:31;1.73;;;1.60;;
4676;SDS011;2352;48.180;11.478;2023-05-17T12:11:35;2.23;;;1.73;;
4676;SDS011;2352;48.180;11.478;2023-05-17T12:14:43;1.93;;;1.67;;
4676;SDS011;2352;48.180;11.478;2023-05-17T12:17:48;4.20;;;1.30;;
4676;SDS011;2352;48.180;11.478;2023-05-17T12:20:52;3.43;;;1.93;;
4676;SDS011;2352;48.180;11.478;2023-05-17T12:23:56;5.17;;;1.73;;
4676;SDS011;2352;48.180;11.478;2023-05-17T12:26:59;2.90;;;1.97;;
4676;SDS011;2352;48.180;11.478;2023-05-17T12:30:14;3.10;;;1.90;;
4676;SDS011;2352;48.180;11.478;2023-05-17T12:33:17;3.03;;;1.60;;
4676;SDS011;2352;48.180;11.478;2023-05-17T12:36:21;2.20;;;1.53;;
4676;SDS011;2352;48.180;11.478;2023-05-17T12:39:24;2.93;;;1.53;;
4676;SDS011;2352;48.180;11.478;2023-05-17T12:42:27;2.00;;;1.57;;
4676;SDS011;2352;48.180;11.478;2023-05-17T12:45:32;4.07;;;1.87;;
4676;SDS011;2352;48.180;11.478;2023-05-17T12:48:35;2.53;;;1.70;;
4676;SDS011;2352;48.180;11.478;2023-05-17T12:51:39;1.97;;;1.77;;
4676;SDS011;2352;48.180;11.478;2023-05-17T12:54:44;2.37;;;1.80;;
4676;SDS011;2352;48.180;11.478;2023-05-17T12:57:48;2.03;;;1.83;;
4676;SDS011;2352;48.180;11.478;2023-05-17T13:00:59;1.67;;;1.27;;
4676;SDS011;2352;48.180;11.478;2023-05-17T13:04:02;3.33;;;1.70;;
4676;SDS011;2352;48.180;11.478;2023-05-17T13:07:06;2.47;;;1.97;;
4676;SDS011;2352;48.180;11.478;2023-05-17T13:10:19;2.83;;;1.60;;
4676;SDS011;2352;48.180;11.478;2023-05-17T13:13:23;1.47;;;1.20;;
4676;SDS011;2352;48.180;11.478;2023-05-17T13:16:28;2.33;;;1.70;;
4676;SDS011;2352;48.180;11.478;2023-05-17T13:19:32;1.70;;;1.60;;
4676;SDS011;2352;48.180;11.478;2023-05-17T13:22:39;2.27;;;1.87;;
4676;SDS011;2352;48.180;11.478;2023-05-17T13:25:42;3.90;;;1.80;;
4676;SDS011;2352;48.180;11.478;2023-05-17T13:28:47;3.27;;;2.07;;
4676;SDS011;2352;48.180;11.478;2023-05-17T13:31:52;3.00;;;2.47;;
4676;SDS011;2352;48.180;11.478;2023-05-17T13:34:56;5.50;;;2.77;;
4676;SDS011;2352;48.180;11.478;2023-05-17T13:37:59;2.23;;;1.90;;
4676;SDS011;2352;48.180;11.478;2023-05-17T13:41:02;2.10;;;1.90;;
4676;SDS011;2352;48.180;11.478;2023-05-17T13:44:09;2.10;;;1.73;;
4676;SDS011;2352;48.180;11.478;2023-05-17T13:47:16;2.23;;;2.03;;
4676;SDS011;2352;48.180;11.478;2023-05-17T13:50:19;1.73;;;1.60;;
4676;SDS011;2352;48.180;11.478;2023-05-17T13:53:24;3.03;;;1.70;;
4676;SDS011;2352;48.180;11.478;2023-05-17T13:56:27;2.10;;;1.90;;
4676;SDS011;2352;48.180;11.478;2023-05-17T13:59:30;3.47;;;1.80;;
4676;SDS011;2352;48.180;11.478;2023-05-17T14:02:35;1.93;;;1.53;;
4676;SDS011;2352;48.180;11.478;2023-05-17T14:05:38;2.63;;;2.13;;
4676;SDS011;2352;48.180;11.478;2023-05-17T14:08:42;2.13;;;2.03;;
4676;SDS011;2352;48.180;11.478;2023-05-17T14:11:46;4.33;;;2.20;;
4676;SDS011;2352;48.180;11.478;2023-05-17T14:14:49;1.53;;;1.43;;
4676;SDS011;2352;48.180;11.478;2023-05-17T14:17:54;2.80;;;2.27;;
4676;SDS011;2352;48.180;11.478;2023-05-17T14:20:57;6.70;;;2.33;;
4676;SDS011;2352;48.180;11.478;2023-05-17T14:24:01;2.90;;;2.20;;
4676;SDS011;2352;48.180;11.478;2023-05-17T14:27:04;2.47;;;2.00;;
4676;SDS011;2352;48.180;11.478;2023-05-17T14:30:08;2.10;;;1.90;;
4676;SDS011;2352;48.180;11.478;2023-05-17T14:33:15;2.33;;;2.00;;
4676;SDS011;2352;48.180;11.478;2023-05-17T14:36:18;3.43;;;2.10;;
4676;SDS011;2352;48.180;11.478;2023-05-17T14:39:21;2.83;;;2.57;;
4676;SDS011;2352;48.180;11.478;2023-05-17T14:42:25;1.80;;;1.70;;
4676;SDS011;2352;48.180;11.478;2023-05-17T14:45:28;2.50;;;2.27;;
4676;SDS011;2352;48.180;11.478;2023-05-17T14:48:33;2.73;;;2.07;;
4676;SDS011;2352;48.180;11.478;2023-05-17T14:51:37;2.20;;;1.97;;
4676;SDS011;2352;48.180;11.478;2023-05-17T14:54:40;2.70;;;2.13;;
4676;SDS011;2352;48.180;11.478;2023-05-17T14:57:43;3.20;;;2.30;;
4676;SDS011;2352;48.180;11.478;2023-05-17T15:00:46;3.73;;;2.10;;
4676;SDS011;2352;48.180;11.478;2023-05-17T15:04:00;2.60;;;2.40;;
4676;SDS011;2352;48.180;11.478;2023-05-17T15:07:03;2.80;;;2.27;;
4676;SDS011;2352;48.180;11.478;2023-05-17T15:10:07;1.90;;;1.70;;
4676;SDS011;2352;48.180;11.478;2023-05-17T15:13:13;5.23;;;1.77;;
4676;SDS011;2352;48.180;11.478;2023-05-17T15:16:16;3.60;;;2.43;;
4676;SDS011;2352;48.180;11.478;2023-05-17T15:19:21;3.30;;;2.17;;
4676;SDS011;2352;48.180;11.478;2023-05-17T15:22:24;2.97;;;2.43;;
4676;SDS011;2352;48.180;11.478;2023-05-17T15:25:27;4.63;;;2.20;;
4676;SDS011;2352;48.180;11.478;2023-05-17T15:28:31;2.93;;;2.63;;
4676;SDS011;2352;48.180;11.478;2023-05-17T15:31:34;4.17;;;2.30;;
4676;SDS011;2352;48.180;11.478;2023-05-17T15:34:39;3.50;;;2.00;;
4676;SDS011;2352;48.180;11.478;2023-05-17T15:37:42;2.00;;;1.80;;
4676;SDS011;2352;48.180;11.478;2023-05-17T15:40:46;2.93;;;2.03;;
4676;SDS011;2352;48.180;11.478;2023-05-17T15:43:49;3.37;;;2.10;;
4676;SDS011;2352;48.180;11.478;2023-05-17T15:46:52;2.97;;;2.67;;
4676;SDS011;2352;48.180;11.478;2023-05-17T15:49:57;4.20;;;2.87;;
4676;SDS011;2352;48.180;11.478;2023-05-17T15:53:00;2.47;;;2.23;;
4676;SDS011;2352;48.180;11.478;2023-05-17T15:56:03;3.13;;;2.83;;
4676;SDS011;2352;48.180;11.478;2023-05-17T15:59:07;2.53;;;2.33;;
4676;SDS011;2352;48.180;11.478;2023-05-17T16:02:10;2.30;;;2.10;;
4676;SDS011;2352;48.180;11.478;2023-05-17T16:05:14;3.30;;;2.07;;
4676;SDS011;2352;48.180;11.478;2023-05-17T16:08:18;5.73;;;2.50;;
4676;SDS011;2352;48.180;11.478;2023-05-17T16:11:21;5.73;;;2.40;;
4676;SDS011;2352;48.180;11.478;2023-05-17T16:14:24;3.23;;;2.40;;
4676;SDS011;2352;48.180;11.478;2023-05-17T16:17:28;4.20;;;3.80;;
4676;SDS011;2352;48.180;11.478;2023-05-17T16:20:32;3.20;;;2.90;;
4676;SDS011;2352;48.180;11.478;2023-05-17T16:23:36;3.53;;;3.23;;
4676;SDS011;2352;48.180;11.478;2023-05-17T16:26:39;4.27;;;2.83;;
4676;SDS011;2352;48.180;11.478;2023-05-17T16:29:42;3.60;;;3.30;;
4676;SDS011;2352;48.180;11.478;2023-05-17T16:32:46;6.83;;;4.60;;
4676;SDS011;2352;48.180;11.478;2023-05-17T16:35:51;3.70;;;3.40;;
4676;SDS011;2352;48.180;11.478;2023-05-17T16:38:54;5.73;;;3.83;;
4676;SDS011;2352;48.180;11.478;2023-05-17T16:41:57;4.67;;;4.13;;
4676;SDS011;2352;48.180;11.478;2023-05-17T16:45:01;3.93;;;3.53;;
4676;SDS011;2352;48.180;11.478;2023-05-17T16:48:07;5.23;;;3.80;;
4676;SDS011;2352;48.180;11.478;2023-05-17T16:51:11;4.00;;;3.70;;
4676;SDS011;2352;48.180;11.478;2023-05-17T16:54:15;5.57;;;3.50;;
4676;SDS011;2352;48.180;11.478;2023-05-17T16:57:18;5.30;;;3.83;;
4676;SDS011;2352;48.180;11.478;2023-05-17T17:00:21;6.27;;;3.80;;
4676;SDS011;2352;48.180;11.478;2023-05-17T17:03:24;3.60;;;2.87;;
4676;SDS011;2352;48.180;11.478;2023-05-17T17:06:29;3.70;;;2.87;;
4676;SDS011;2352;48.180;11.478;2023-05-17T17:09:33;3.63;;;3.30;;
4676;SDS011;2352;48.180;11.478;2023-05-17T17:12:37;6.03;;;3.30;;
4676;SDS011;2352;48.180;11.478;2023-05-17T17:15:40;3.13;;;2.83;;
4676;SDS011;2352;48.180;11.478;2023-05-17T17:18:43;5.10;;;3.10;;
4676;SDS011;2352;48.180;11.478;2023-05-17T17:21:49;3.80;;;3.13;;
4676;SDS011;2352;48.180;11.478;2023-05-17T17:24:52;3.97;;;3.10;;
4676;SDS011;2352;48.180;11.478;2023-05-17T17:27:55;3.90;;;3.30;;
4676;SDS011;2352;48.180;11.478;2023-05-17T17:30:57;3.77;;;3.20;;
4676;SDS011;2352;48.180;11.478;2023-05-17T17:34:00;6.70;;;3.40;;
4676;SDS011;2352;48.180;11.478;2023-05-17T17:37:05;4.57;;;2.57;;
4676;SDS011;2352;48.180;11.478;2023-05-17T17:40:08;3.57;;;2.43;;
4676;SDS011;2352;48.180;11.478;2023-05-17T17:43:12;3.47;;;2.40;;
4676;SDS011;2352;48.180;11.478;2023-05-17T17:46:15;4.50;;;2.80;;
4676;SDS011;2352;48.180;11.478;2023-05-17T17:49:18;2.97;;;2.67;;
4676;SDS011;2352;48.180;11.478;2023-05-17T17:52:23;4.43;;;2.90;;
4676;SDS011;2352;48.180;11.478;2023-05-17T17:55:25;2.90;;;2.30;;
4676;SDS011;2352;48.180;11.478;2023-05-17T17:58:28;3.70;;;2.30;;
4676;SDS011;2352;48.180;11.478;2023-05-17T18:01:31;2.63;;;2.37;;
4676;SDS011;2352;48.180;11.478;2023-05-17T18:04:37;5.87;;;3.07;;
4676;SDS011;2352;48.180;11.478;2023-05-17T18:07:43;2.67;;;2.00;;
4676;SDS011;2352;48.180;11.478;2023-05-17T18:10:45;2.93;;;2.30;;
4676;SDS011;2352;48.180;11.478;2023-05-17T18:13:48;7.37;;;3.10;;
4676;SDS011;2352;48.180;11.478;2023-05-17T18:16:51;3.73;;;2.73;;
4676;SDS011;2352;48.180;11.478;2023-05-17T18:19:54;6.57;;;3.03;;
4676;SDS011;2352;48.180;11.478;2023-05-17T18:22:58;3.70;;;2.70;;
4676;SDS011;2352;48.180;11.478;2023-05-17T18:26:01;5.07;;;2.47;;
4676;SDS011;2352;48.180;11.478;2023-05-17T18:29:04;3.13;;;2.93;;
4676;SDS011;2352;48.180;11.478;2023-05-17T18:32:07;2.80;;;2.60;;
4676;SDS011;2352;48.180;11.478;2023-05-17T18:35:11;3.57;;;3.23;;
4676;SDS011;2352;48.180;11.478;2023-05-17T18:38:15;2.60;;;2.27;;
4676;SDS011;2352;48.180;11.478;2023-05-17T18:41:18;3.33;;;2.93;;
4676;SDS011;2352;48.180;11.478;2023-05-17T18:44:21;3.77;;;3.00;;
4676;SDS011;2352;48.180;11.478;2023-05-17T18:47:23;2.57;;;2.37;;